.
WxDataArchive / Data Records for 2016-01-20
2016-01-19 January 2016 2016-01-21

Data Records for Wednesday, 20 January 2016

Time	Temp	Chill	HIndex	Humid	Dewpt	 Wind 	HiWind	WindDir	Rain 	Barom
-----	----	-----	------	-----	-----	------	------	-------	-----	-----
00:00	13.6	13.6	13.6	73	6.6	0	0	---	0.00	30.426 
00:05	13.8	13.8	13.8	73	6.8	0	0	---	0.00	30.426 
00:10	13.8	13.8	13.8	73	6.8	0	0	---	0.00	30.426 
00:15	13.8	13.8	13.8	73	6.8	0	0	---	0.00	30.427 
00:20	14.0	14.0	14.0	73	7.0	0	0	---	0.00	30.427 
00:25	14.0	14.0	14.0	73	7.0	0	0	---	0.00	30.427 
00:30	14.0	14.0	14.0	73	7.0	0	0	---	0.00	30.422 
00:35	14.0	14.0	14.0	73	7.0	0	0	---	0.00	30.422 
00:40	14.0	14.0	14.0	73	7.0	0	0	---	0.00	30.422 
00:45	13.8	13.8	13.8	73	6.8	0	0	---	0.00	30.420 
00:50	13.8	13.8	13.8	73	6.8	0	0	---	0.00	30.420 
00:55	13.5	13.5	13.5	73	6.5	0	0	---	0.00	30.420 
01:00	13.3	13.3	13.3	73	6.3	0	0	---	0.00	30.410 
01:05	13.1	13.1	13.1	73	6.1	0	0	---	0.00	30.410 
01:10	12.9	12.9	12.9	73	5.9	0	0	---	0.00	30.410 
01:15	12.8	12.8	12.8	73	5.8	0	0	---	0.00	30.412 
01:20	12.8	12.8	12.8	74	6.1	0	0	---	0.00	30.412 
01:25	12.8	12.8	12.8	74	6.1	0	0	---	0.00	30.412 
01:30	12.8	12.8	12.8	74	6.1	0	0	---	0.00	30.410 
01:35	12.9	12.9	12.9	74	6.2	0	0	---	0.00	30.410 
01:40	13.1	13.1	13.1	75	6.7	0	0	---	0.00	30.410 
01:45	13.3	13.3	13.3	75	6.9	0	0	---	0.00	30.410 
01:50	13.5	13.5	13.5	75	7.1	0	0	---	0.00	30.410 
01:55	13.6	13.6	13.6	74	6.9	0	0	---	0.00	30.410 
02:00	14.0	14.0	14.0	73	7.0	0	1	270	0.00	30.408 
02:05	14.0	14.0	14.0	73	7.0	0	0	---	0.00	30.408 
02:10	14.1	14.1	14.1	73	7.1	0	0	---	0.00	30.408 
02:15	14.3	14.3	14.3	73	7.3	0	1	270	0.00	30.400 
02:20	14.4	14.4	14.4	73	7.4	0	1	270	0.00	30.400 
02:25	14.6	14.6	14.6	73	7.5	0	1	270	0.00	30.400 
02:30	14.8	14.8	14.8	72	7.4	0	1	270	0.00	30.393 
02:35	14.8	14.8	14.8	72	7.4	0	0	---	0.00	30.393 
02:40	14.8	14.8	14.8	72	7.4	0	1	270	0.00	30.393 
02:45	14.9	14.9	14.9	72	7.5	0	1	270	0.00	30.388 
02:50	14.9	14.9	14.9	72	7.5	0	1	270	0.00	30.388 
02:55	15.1	15.1	15.1	72	7.7	0	1	270	0.00	30.388 
03:00	15.1	15.1	15.1	72	7.7	0	1	270	0.00	30.384 
03:05	15.1	15.1	15.1	72	7.7	1	2	270	0.00	30.384 
03:10	15.1	15.1	15.1	72	7.7	0	2	270	0.00	30.384 
03:15	15.2	15.2	15.2	72	7.8	0	1	270	0.00	30.374 
03:20	15.2	15.2	15.2	72	7.8	0	1	270	0.00	30.374 
03:25	15.2	15.2	15.2	72	7.8	0	2	270	0.00	30.374 
03:30	15.2	15.2	15.2	72	7.8	0	1	270	0.00	30.367 
03:35	15.2	15.2	15.2	72	7.8	0	2	270	0.00	30.367 
03:40	15.4	15.4	15.4	72	8.0	0	1	270	0.00	30.367 
03:45	15.4	15.4	15.4	72	8.0	0	1	270	0.00	30.367 
03:50	15.4	15.4	15.4	72	8.0	0	1	270	0.00	30.367 
03:55	15.6	15.6	15.6	73	8.5	0	1	270	0.00	30.367 
04:00	15.6	15.6	15.6	72	8.2	0	0	---	0.00	30.364 
04:05	15.6	15.6	15.6	72	8.2	0	1	270	0.00	30.364 
04:10	15.6	15.6	15.6	71	7.9	0	2	270	0.00	30.364 
04:15	15.6	15.6	15.6	71	7.9	0	2	270	0.00	30.358 
04:20	15.6	15.6	15.6	71	7.9	0	1	270	0.00	30.358 
04:25	15.6	15.6	15.6	71	7.9	0	1	270	0.00	30.358 
04:30	15.7	15.7	15.7	72	8.3	0	1	270	0.00	30.354 
04:35	15.7	15.7	15.7	73	8.6	0	1	270	0.00	30.354 
04:40	15.7	15.7	15.7	74	8.9	0	1	270	0.00	30.354 
04:45	15.6	15.6	15.6	74	8.8	0	0	---	0.00	30.352 
04:50	15.6	15.6	15.6	76	9.4	0	1	270	0.00	30.352 
04:55	15.4	15.4	15.4	76	9.2	0	1	270	0.00	30.352 
05:00	15.4	15.4	15.4	77	9.5	0	1	270	0.00	30.347 
05:05	15.4	15.4	15.4	78	9.8	0	1	270	0.00	30.347 
05:10	15.2	15.2	15.2	79	9.9	0	0	---	0.00	30.347 
05:15	15.2	15.2	15.2	79	9.9	0	1	270	0.00	30.338 
05:20	15.2	15.2	15.2	80	10.2	0	1	270	0.00	30.338 
05:25	15.2	15.2	15.2	80	10.2	0	2	270	0.00	30.338 
05:30	15.1	15.1	15.1	81	10.3	0	2	270	0.00	30.324 
05:35	15.1	15.1	15.1	81	10.3	0	1	270	0.00	30.324 
05:40	15.1	15.1	15.1	81	10.3	0	1	270	0.00	30.324 
05:45	15.1	15.1	15.1	82	10.6	0	1	270	0.00	30.326 
05:50	15.1	15.1	15.1	82	10.6	0	1	270	0.00	30.326 
05:55	15.1	15.1	15.1	82	10.6	0	1	270	0.00	30.326 
06:00	15.2	15.2	15.2	82	10.7	0	1	270	0.00	30.322 
06:05	15.2	15.2	15.2	83	11.0	0	1	270	0.00	30.322 
06:10	15.1	15.1	15.1	83	10.9	0	1	270	0.00	30.322 
06:15	15.1	15.1	15.1	83	10.9	0	1	270	0.00	30.313 
06:20	15.1	15.1	15.1	83	10.9	0	2	270	0.00	30.313 
06:25	15.1	15.1	15.1	83	10.9	0	1	270	0.00	30.313 
06:30	15.1	15.1	15.1	84	11.2	0	1	270	0.00	30.308 
06:35	15.1	15.1	15.1	84	11.2	0	2	270	0.00	30.308 
06:40	14.9	14.9	14.9	84	11.0	0	1	270	0.00	30.308 
06:45	14.9	14.9	14.9	84	11.0	0	2	270	0.00	30.307 
06:50	14.9	14.9	14.9	84	11.0	0	2	270	0.00	30.307 
06:55	14.9	14.9	14.9	84	11.0	0	2	270	0.00	30.307 
07:00	14.9	14.9	14.9	84	11.0	1	2	292	0.00	30.300 
07:05	14.9	14.9	14.9	84	11.0	0	2	292	0.00	30.300 
07:10	14.9	14.9	14.9	84	11.0	0	2	292	0.00	30.300 
07:15	14.9	14.9	14.9	84	11.0	1	4	292	0.00	30.299 
07:20	14.9	14.9	14.9	84	11.0	0	4	45	0.00	30.299 
07:25	15.1	15.1	15.1	84	11.2	0	1	45	0.00	30.299 
07:30	15.1	15.1	15.1	84	11.2	0	2	45	0.00	30.299 
07:35	15.1	15.1	15.1	85	11.4	0	2	45	0.00	30.299 
07:40	15.1	15.1	15.1	84	11.2	1	3	45	0.00	30.299 
07:45	14.9	14.9	14.9	84	11.0	0	3	68	0.00	30.299 
07:50	14.9	14.9	14.9	84	11.0	0	2	68	0.00	30.299 
07:55	14.9	14.9	14.9	84	11.0	0	2	68	0.00	30.299 
08:00	14.9	14.9	14.9	85	11.2	0	1	68	0.00	30.299 
08:05	14.9	14.9	14.9	85	11.2	0	1	68	0.00	30.299 
08:10	14.9	14.9	14.9	85	11.2	0	3	68	0.00	30.299 
08:15	14.9	14.9	14.9	85	11.2	0	2	68	0.00	30.298 
08:20	14.9	14.9	14.9	85	11.2	0	1	68	0.00	30.298 
08:25	15.1	15.1	15.1	85	11.4	0	0	---	0.00	30.298 
08:30	15.1	15.1	15.1	85	11.4	0	2	68	0.00	30.299 
08:35	15.1	15.1	15.1	85	11.4	0	2	68	0.00	30.299 
08:40	15.1	15.1	15.1	85	11.4	0	1	68	0.00	30.299 
08:45	15.2	15.2	15.2	85	11.5	0	2	68	0.00	30.298 
08:50	15.2	15.2	15.2	85	11.5	0	2	68	0.00	30.298 
08:55	15.2	15.2	15.2	84	11.3	0	2	68	0.00	30.298 
09:00	15.4	15.4	15.4	84	11.4	0	2	68	0.00	30.295 
09:05	15.4	15.4	15.4	84	11.4	0	2	68	0.00	30.295 
09:10	15.4	15.4	15.4	84	11.4	0	2	68	0.00	30.295 
09:15	15.6	15.6	15.6	84	11.6	0	1	68	0.00	30.297 
09:20	15.7	15.7	15.7	84	11.7	0	2	68	0.00	30.297 
09:25	15.7	15.7	15.7	84	11.7	0	1	68	0.00	30.297 
09:30	15.9	15.9	15.9	84	11.9	0	2	68	0.00	30.297 
09:35	15.9	15.9	15.9	84	11.9	0	2	68	0.00	30.297 
09:40	15.9	15.9	15.9	84	11.9	1	2	68	0.00	30.297 
09:45	15.9	15.9	15.9	84	11.9	0	2	68	0.00	30.295 
09:50	16.1	16.1	16.1	84	12.1	1	3	90	0.00	30.295 
09:55	16.1	16.1	16.1	83	11.9	1	3	90	0.00	30.295 
10:00	16.2	16.2	16.2	83	12.0	1	3	90	0.00	30.293 
10:05	16.2	16.2	16.2	83	12.0	0	2	90	0.00	30.293 
10:10	16.2	16.2	16.2	83	12.0	0	2	90	0.00	30.293 
10:15	16.4	16.4	16.4	83	12.2	0	2	90	0.00	30.292 
10:20	16.5	16.5	16.5	83	12.3	0	2	90	0.00	30.292 
10:25	16.7	16.7	16.7	82	12.2	0	2	90	0.00	30.292 
10:30	16.9	16.9	16.9	82	12.4	1	2	90	0.00	30.291 
10:35	17.0	17.0	17.0	82	12.5	0	2	90	0.00	30.291 
10:40	17.2	17.2	17.2	82	12.7	0	3	90	0.00	30.291 
10:45	17.3	17.3	17.3	81	12.5	1	2	90	0.00	30.288 
10:50	17.3	17.3	17.3	81	12.5	1	2	90	0.00	30.288 
10:55	17.3	17.3	17.3	80	12.2	0	3	90	0.00	30.288 
11:00	17.2	17.2	17.2	80	12.1	1	3	90	0.00	30.284 
11:05	17.2	17.2	17.2	80	12.1	1	2	90	0.00	30.284 
11:10	17.3	17.3	17.3	80	12.2	1	3	90	0.00	30.284 
11:15	17.5	17.5	17.5	80	12.4	1	3	90	0.00	30.281 
11:20	17.5	17.5	17.5	79	12.1	0	2	90	0.00	30.281 
11:25	17.7	17.7	17.7	79	12.3	1	3	90	0.00	30.281 
11:30	17.7	17.7	17.7	79	12.3	0	2	90	0.00	30.275 
11:35	17.8	17.8	17.8	79	12.4	0	2	90	0.00	30.275 
11:40	18.0	18.0	18.0	79	12.6	0	4	90	0.00	30.275 
11:45	18.0	18.0	18.0	78	12.3	0	2	90	0.00	30.270 
11:50	18.1	18.1	18.1	78	12.4	0	2	90	0.00	30.270 
11:55	18.3	18.3	18.3	78	12.6	0	2	90	0.00	30.270 
12:00	18.6	18.6	18.6	78	12.9	0	2	90	0.00	30.259 
12:05	19.1	19.1	19.1	77	13.1	0	1	90	0.00	30.259 
12:10	19.2	19.2	19.2	76	12.9	0	2	90	0.00	30.259 
12:15	19.2	19.2	19.2	76	12.9	0	1	90	0.00	30.253 
12:20	19.4	19.4	19.4	76	13.1	0	2	90	0.00	30.253 
12:25	19.4	19.4	19.4	75	12.8	0	2	90	0.00	30.253 
12:30	19.4	19.4	19.4	75	12.8	0	1	90	0.00	30.255 
12:35	19.2	19.2	19.2	74	12.3	0	2	90	0.00	30.255 
12:40	19.2	19.2	19.2	74	12.3	0	2	90	0.00	30.255 
12:45	19.2	19.2	19.2	73	12.0	1	3	90	0.00	30.250 
12:50	18.9	18.9	18.9	73	11.7	0	1	90	0.00	30.250 
12:55	18.8	18.8	18.8	73	11.6	0	1	90	0.00	30.250 
13:00	18.8	18.8	18.8	73	11.6	0	1	90	0.00	30.245 
13:05	18.8	18.8	18.8	73	11.6	0	2	90	0.00	30.245 
13:10	18.8	18.8	18.8	73	11.6	1	2	90	0.00	30.245 
13:15	18.6	18.6	18.6	74	11.7	0	2	90	0.00	30.234 
13:20	18.9	18.9	18.9	74	12.0	0	2	90	0.00	30.234 
13:25	18.9	18.9	18.9	74	12.0	0	2	90	0.00	30.234 
13:30	19.2	19.2	19.2	74	12.3	0	1	90	0.00	30.227 
13:35	19.5	19.5	19.5	73	12.3	0	3	90	0.00	30.227 
13:40	20.0	20.0	20.0	74	13.1	1	4	90	0.00	30.227 
13:45	20.0	20.0	20.0	73	12.8	0	2	90	0.00	30.210 
13:50	20.0	20.0	20.0	72	12.5	0	1	90	0.00	30.210 
13:55	19.9	19.9	19.9	72	12.4	0	2	90	0.00	30.210 
14:00	19.7	19.7	19.7	71	11.8	0	3	90	0.00	30.210 
14:05	19.7	19.7	19.7	72	12.2	0	2	90	0.00	30.210 
14:10	19.7	19.7	19.7	72	12.2	0	1	90	0.00	30.210 
14:15	20.0	20.0	20.0	72	12.5	0	1	90	0.00	30.208 
14:20	20.3	20.3	20.3	72	12.7	0	3	90	0.00	30.208 
14:25	20.3	20.3	20.3	72	12.7	0	3	90	0.00	30.208 
14:30	20.3	20.3	20.3	71	12.4	1	3	90	0.00	30.196 
14:35	20.2	20.2	20.2	71	12.3	1	2	90	0.00	30.196 
14:40	20.2	20.2	20.2	71	12.3	0	3	90	0.00	30.196 
14:45	20.3	20.3	20.3	71	12.4	1	3	90	0.00	30.195 
14:50	20.2	20.2	20.2	71	12.3	1	2	90	0.00	30.195 
14:55	20.3	20.3	20.3	71	12.4	0	2	90	0.00	30.195 
15:00	20.5	20.5	20.5	72	12.9	0	1	90	0.00	30.199 
15:05	20.6	20.6	20.6	71	12.7	0	1	90	0.00	30.199 
15:10	20.6	20.6	20.6	71	12.7	0	2	90	0.00	30.199 
15:15	20.8	20.8	20.8	70	12.6	0	2	68	0.00	30.198 
15:20	20.8	20.8	20.8	69	12.3	0	3	68	0.00	30.198 
15:25	21.0	21.0	21.0	69	12.5	0	0	---	0.00	30.198 
15:30	21.0	21.0	21.0	69	12.5	0	1	68	0.00	30.202 
15:35	21.0	21.0	21.0	68	12.1	0	2	68	0.00	30.202 
15:40	20.8	20.8	20.8	69	12.3	0	2	68	0.00	30.202 
15:45	21.0	21.0	21.0	69	12.5	0	1	68	0.00	30.204 
15:50	21.0	21.0	21.0	69	12.5	0	2	68	0.00	30.204 
15:55	20.8	20.8	20.8	68	11.9	0	1	68	0.00	30.204 
16:00	20.6	20.6	20.6	68	11.7	0	1	68	0.00	30.199 
16:05	20.5	20.5	20.5	67	11.3	0	2	68	0.00	30.199 
16:10	20.6	20.6	20.6	67	11.4	0	1	68	0.00	30.199 
16:15	21.0	21.0	21.0	66	11.5	1	4	0	0.00	30.208 
16:20	21.0	21.0	21.0	66	11.5	0	2	0	0.00	30.208 
16:25	21.0	21.0	21.0	66	11.5	0	1	292	0.00	30.208 
16:30	21.0	21.0	21.0	66	11.5	0	1	292	0.00	30.221 
16:35	21.0	21.0	21.0	66	11.5	0	2	292	0.00	30.221 
16:40	21.0	21.0	21.0	66	11.5	0	2	292	0.00	30.221 
16:45	20.6	20.6	20.6	65	10.7	0	2	292	0.00	30.222 
16:50	20.5	20.5	20.5	65	10.6	0	1	292	0.00	30.222 
16:55	20.3	20.3	20.3	65	10.4	0	1	292	0.00	30.222 
17:00	20.2	20.2	20.2	65	10.3	0	1	292	0.00	30.220 
17:05	20.0	20.0	20.0	65	10.2	0	1	292	0.00	30.220 
17:10	19.9	19.9	19.9	66	10.4	0	1	292	0.00	30.220 
17:15	19.7	19.7	19.7	66	10.2	0	0	---	0.00	30.226 
17:20	19.7	19.7	19.7	66	10.2	0	1	292	0.00	30.226 
17:25	19.5	19.5	19.5	66	10.0	0	1	292	0.00	30.226 
17:30	19.5	19.5	19.5	66	10.0	0	0	---	0.00	30.227 
17:35	19.4	19.4	19.4	67	10.3	0	0	---	0.00	30.227 
17:40	19.2	19.2	19.2	67	10.1	0	1	292	0.00	30.227 
17:45	19.1	19.1	19.1	67	10.0	0	0	---	0.00	30.235 
17:50	18.9	18.9	18.9	68	10.1	0	1	292	0.00	30.235 
17:55	18.6	18.6	18.6	68	9.8	0	0	---	0.00	30.235 
18:00	18.4	18.4	18.4	69	10.0	0	0	---	0.00	30.241 
18:05	18.3	18.3	18.3	69	9.9	0	0	---	0.00	30.241 
18:10	18.0	18.0	18.0	69	9.6	0	0	---	0.00	30.241 
18:15	17.7	17.7	17.7	70	9.6	0	0	---	0.00	30.254 
18:20	17.3	17.3	17.3	70	9.2	0	0	---	0.00	30.254 
18:25	16.9	16.9	16.9	71	9.2	0	0	---	0.00	30.254 
18:30	16.5	16.5	16.5	72	9.1	0	0	---	0.00	30.259 
18:35	16.2	16.2	16.2	72	8.8	0	0	---	0.00	30.259 
18:40	15.9	15.9	15.9	73	8.8	0	0	---	0.00	30.259 
18:45	15.6	15.6	15.6	74	8.8	0	0	---	0.00	30.261 
18:50	15.4	15.4	15.4	74	8.6	0	0	---	0.00	30.261 
18:55	14.9	14.9	14.9	75	8.4	0	0	---	0.00	30.261 
19:00	14.6	14.6	14.6	75	8.1	0	0	---	0.00	30.260 
19:05	14.4	14.4	14.4	76	8.2	0	0	---	0.00	30.260 
19:10	14.1	14.1	14.1	76	8.0	0	0	---	0.00	30.260 
19:15	14.0	14.0	14.0	77	8.1	0	0	---	0.00	30.264 
19:20	13.8	13.8	13.8	77	7.9	0	0	---	0.00	30.264 
19:25	13.6	13.6	13.6	78	8.0	0	0	---	0.00	30.264 
19:30	13.5	13.5	13.5	78	7.9	0	0	---	0.00	30.264 
19:35	13.1	13.1	13.1	79	7.8	0	0	---	0.00	30.264 
19:40	12.9	12.9	12.9	79	7.6	0	0	---	0.00	30.264 
19:45	12.8	12.8	12.8	79	7.5	0	0	---	0.00	30.268 
19:50	12.6	12.6	12.6	80	7.6	0	0	---	0.00	30.268 
19:55	12.6	12.6	12.6	81	7.9	0	0	---	0.00	30.268 
20:00	12.4	12.4	12.4	81	7.7	0	0	---	0.00	30.281 
20:05	12.3	12.3	12.3	81	7.6	0	0	---	0.00	30.281 
20:10	12.1	12.1	12.1	81	7.4	0	0	---	0.00	30.281 
20:15	11.9	11.9	11.9	81	7.2	0	0	---	0.00	30.280 
20:20	11.6	11.6	11.6	81	6.9	0	0	---	0.00	30.280 
20:25	11.6	11.6	11.6	82	7.2	0	0	---	0.00	30.280 
20:30	11.4	11.4	11.4	82	7.0	0	0	---	0.00	30.286 
20:35	11.1	11.1	11.1	82	6.7	0	0	---	0.00	30.286 
20:40	10.9	10.9	10.9	82	6.5	0	0	---	0.00	30.286 
20:45	10.7	10.7	10.7	83	6.6	0	0	---	0.00	30.292 
20:50	10.9	10.9	10.9	83	6.8	0	0	---	0.00	30.292 
20:55	10.9	10.9	10.9	83	6.8	0	0	---	0.00	30.292 
21:00	10.9	10.9	10.9	84	7.0	0	0	---	0.00	30.297 
21:05	11.2	11.2	11.2	84	7.3	0	0	---	0.00	30.297 
21:10	11.4	11.4	11.4	84	7.5	0	0	---	0.00	30.297 
21:15	11.6	11.6	11.6	84	7.7	0	0	---	0.00	30.297 
21:20	11.6	11.6	11.6	84	7.7	0	0	---	0.00	30.297 
21:25	11.6	11.6	11.6	84	7.7	0	0	---	0.00	30.297 
21:30	11.6	11.6	11.6	84	7.7	0	0	---	0.00	30.308 
21:35	11.6	11.6	11.6	84	7.7	0	0	---	0.00	30.308 
21:40	11.6	11.6	11.6	84	7.7	0	0	---	0.00	30.308 
21:45	11.4	11.4	11.4	84	7.5	0	0	---	0.00	30.310 
21:50	11.2	11.2	11.2	84	7.3	0	0	---	0.00	30.310 
21:55	11.1	11.1	11.1	84	7.2	0	0	---	0.00	30.310 
22:00	10.9	10.9	10.9	84	7.0	0	0	---	0.00	30.307 
22:05	10.7	10.7	10.7	84	6.8	0	0	---	0.00	30.307 
22:10	10.5	10.5	10.5	84	6.6	0	0	---	0.00	30.307 
22:15	10.5	10.5	10.5	84	6.6	0	0	---	0.00	30.310 
22:20	10.5	10.5	10.5	85	6.9	0	0	---	0.00	30.310 
22:25	10.5	10.5	10.5	85	6.9	0	0	---	0.00	30.310 
22:30	10.4	10.4	10.4	85	6.8	0	0	---	0.00	30.327 
22:35	10.2	10.2	10.2	85	6.6	0	0	---	0.00	30.327 
22:40	10.0	10.0	10.0	84	6.2	0	0	---	0.00	30.327 
22:45	9.7	9.7	9.7	84	5.9	0	0	---	0.00	30.325 
22:50	9.5	9.5	9.5	84	5.7	0	0	---	0.00	30.325 
22:55	9.3	9.3	9.3	84	5.5	0	0	---	0.00	30.325 
23:00	9.3	9.3	9.3	85	5.7	0	0	---	0.00	30.325 
23:05	9.3	9.3	9.3	85	5.7	0	0	---	0.00	30.325 
23:10	9.3	9.3	9.3	85	5.7	0	0	---	0.00	30.325 
23:15	9.3	9.3	9.3	85	5.7	0	0	---	0.00	30.318 
23:20	9.3	9.3	9.3	85	5.7	0	0	---	0.00	30.318 
23:25	9.2	9.2	9.2	85	5.6	0	0	---	0.00	30.318 
23:30	9.0	9.0	9.0	85	5.4	0	0	---	0.00	30.319 
23:35	8.8	8.8	8.8	85	5.2	0	0	---	0.00	30.319 
23:40	8.6	8.6	8.6	85	5.0	0	0	---	0.00	30.319 
23:45	8.6	8.6	8.6	85	5.0	0	0	---	0.00	30.323 
23:50	8.4	8.4	8.4	84	4.6	0	0	---	0.00	30.323 
23:55	8.3	8.3	8.3	84	4.5	0	0	---	0.00	30.323 

CoCoRaHS
IN-AL-39
A2 Web Hosting
Creative Commons License
GoDaddy
search engine by freefind advanced

loaded 2018-11-21 01:33:39 • last modified 2010-11-18 10:43:29
Privacy PolicyDisclaimer
• wx.awcolley.com is powered by PmWiki v.2002016 •
• all content (unless otherwise noted) © 2018 A W Colley